CheckWX is a tool to help pilots better visualize weather data.  It is not intended as a substitute for an official pre-flight weather briefing.

14:15:30 UTC

KTIF METAR
Thomas County Airport
Thedford, Nebraska, USA
Current

21 mins ago

KTIF 091355Z AUTO 34003KT 10SM CLR 21/16 A2996 RMK AO2 T02060159
Observed
Jul-9 @ 13:55 UTC
Wind
  • 340° at 3 KTS
Visibility
10 SM
Flight Rules
VFR
Cloud Levels
  • Clear skies
Temperature
21°C / 70°F
Dewpoint
16°C / 61°F
Humidity
73%
Altimeter
29.96" Hg
Pressure
1014.52 hPa
Previous

41 mins ago

KTIF 091335Z AUTO 02005KT 10SM CLR 20/16 A2996 RMK AO2 T01970158
Observed
Jul-9 @ 13:35 UTC
Wind
  • 020° at 5 KTS
Visibility
10 SM
Flight Rules
VFR
Cloud Levels
  • Clear skies
Temperature
20°C / 68°F
Dewpoint
16°C / 61°F
Humidity
78%
Altimeter
29.96" Hg
Pressure
1014.52 hPa
Previous

1 hour ago

KTIF 091315Z AUTO 36006KT 10SM CLR 19/16 A2997 RMK AO2 T01930157
Observed
Jul-9 @ 13:15 UTC
Wind
  • 360° at 6 KTS
Visibility
10 SM
Flight Rules
VFR
Cloud Levels
  • Clear skies
Temperature
19°C / 66°F
Dewpoint
16°C / 61°F
Humidity
83%
Altimeter
29.97" Hg
Pressure
1014.92 hPa